createdAt,value
2017-09-06T00:00:46.245Z,67.84
2017-09-06T00:05:48.167Z,67.81
2017-09-06T00:10:52.188Z,68.15
2017-09-06T00:15:54.177Z,68.74
2017-09-06T00:20:57.819Z,68.91
2017-09-06T00:25:59.814Z,68.99
2017-09-06T00:31:01.966Z,69.24
2017-09-06T00:36:04.188Z,70.56
2017-09-06T00:41:06.975Z,72.26
2017-09-06T00:46:09.874Z,72.88
2017-09-06T00:51:11.835Z,73.86
2017-09-06T00:56:14.208Z,74.21
2017-09-06T01:01:17.433Z,74.40
2017-09-06T01:06:19.730Z,74.30
2017-09-06T01:11:22.067Z,74.59
2017-09-06T01:16:24.089Z,74.76
2017-09-06T01:21:26.079Z,74.35
2017-09-06T01:26:28.056Z,74.19
2017-09-06T01:31:30.094Z,73.78
2017-09-06T01:36:32.082Z,73.94
2017-09-06T01:41:34.095Z,73.98
2017-09-06T01:46:36.117Z,73.55
2017-09-06T01:51:38.104Z,73.64
2017-09-06T01:56:40.103Z,73.64
2017-09-06T02:01:42.086Z,73.79
2017-09-06T02:06:44.092Z,73.64
2017-09-06T02:11:46.045Z,73.64
2017-09-06T02:16:47.999Z,73.60
2017-09-06T02:21:49.948Z,73.38
2017-09-06T02:26:51.911Z,73.15
2017-09-06T02:31:53.902Z,73.04
2017-09-06T02:36:55.886Z,72.97
2017-09-06T02:41:57.945Z,73.10
2017-09-06T02:46:59.994Z,73.35
2017-09-06T02:52:02.220Z,73.50
2017-09-06T02:57:04.211Z,73.59
2017-09-06T03:02:06.195Z,73.75
2017-09-06T03:07:13.704Z,73.88
2017-09-06T03:12:17.519Z,74.01
2017-09-06T03:17:23.050Z,73.74
2017-09-06T03:22:26.532Z,73.81
2017-09-06T03:27:29.839Z,73.62
2017-09-06T03:32:31.867Z,73.94
2017-09-06T03:37:33.843Z,73.89
2017-09-06T03:42:35.820Z,74.17
2017-09-06T03:47:37.809Z,74.07
2017-09-06T03:52:39.833Z,74.00
2017-09-06T03:57:41.805Z,74.17
2017-09-06T04:02:43.781Z,74.05
2017-09-06T04:07:45.727Z,73.87
2017-09-06T04:12:47.682Z,73.88
2017-09-06T04:17:49.607Z,73.69
2017-09-06T04:22:51.593Z,73.47
2017-09-06T04:27:53.624Z,73.37
2017-09-06T04:32:55.596Z,73.47
2017-09-06T04:37:57.531Z,73.40
2017-09-06T04:42:59.505Z,73.37
2017-09-06T04:48:01.464Z,73.45
2017-09-06T04:53:03.442Z,73.38
2017-09-06T04:58:05.444Z,73.48
2017-09-06T05:03:07.503Z,73.38
2017-09-06T05:08:09.436Z,73.91
2017-09-06T05:13:11.386Z,74.01
2017-09-06T05:18:13.358Z,73.82
2017-09-06T05:23:15.299Z,73.75
2017-09-06T05:28:19.850Z,73.66
2017-09-06T05:33:27.596Z,73.89
2017-09-06T05:38:34.373Z,73.50
2017-09-06T05:43:36.788Z,72.90
2017-09-06T05:48:38.760Z,72.07
2017-09-06T05:53:40.732Z,71.49
2017-09-06T05:58:42.665Z,71.48
2017-09-06T06:03:44.642Z,71.96
2017-09-06T06:08:46.576Z,72.60
2017-09-06T06:13:48.635Z,72.35
2017-09-06T06:18:50.568Z,72.23
2017-09-06T06:23:52.545Z,71.94
2017-09-06T06:28:54.523Z,71.83
2017-09-06T06:33:56.510Z,71.60
2017-09-06T06:38:58.471Z,71.68
2017-09-06T06:44:00.411Z,71.40
2017-09-06T06:49:02.868Z,71.48
2017-09-06T06:54:04.904Z,70.86
2017-09-06T06:59:06.899Z,70.24
2017-09-06T07:04:08.879Z,70.20
2017-09-06T07:09:10.853Z,69.53
2017-09-06T07:14:12.809Z,67.97
2017-09-06T07:19:14.815Z,67.87
2017-09-06T07:24:16.784Z,67.59
2017-09-06T07:29:19.676Z,67.87
2017-09-06T07:34:21.626Z,67.78
2017-09-06T07:39:23.908Z,66.90
2017-09-06T07:44:26.182Z,66.09
2017-09-06T07:49:28.273Z,65.34
2017-09-06T07:54:30.479Z,64.98
2017-09-06T07:59:32.451Z,65.59
2017-09-06T08:04:34.395Z,66.04
2017-09-06T08:09:36.621Z,66.24
2017-09-06T08:14:38.823Z,66.00
2017-09-06T08:19:41.441Z,65.88
2017-09-06T08:24:43.385Z,64.36
2017-09-06T08:29:45.403Z,63.48
2017-09-06T08:34:47.372Z,63.05
2017-09-06T08:39:49.318Z,63.37
2017-09-06T08:44:51.327Z,62.04
2017-09-06T08:49:53.333Z,60.44
2017-09-06T08:54:55.297Z,59.80
2017-09-06T08:59:57.263Z,60.92
2017-09-06T09:04:59.250Z,62.67
2017-09-06T09:10:01.201Z,64.99
2017-09-06T09:15:03.362Z,67.11
2017-09-06T09:20:05.377Z,70.22
2017-09-06T09:25:08.492Z,72.08
2017-09-06T09:30:10.528Z,73.26
2017-09-06T09:35:12.552Z,74.64
2017-09-06T09:40:14.553Z,75.22
2017-09-06T09:45:16.558Z,75.04
2017-09-06T09:50:18.544Z,73.65
2017-09-06T09:55:20.504Z,72.34
2017-09-06T10:00:22.479Z,71.60
2017-09-06T10:05:24.437Z,71.50
2017-09-06T10:10:26.378Z,70.27
2017-09-06T10:15:28.427Z,69.52
2017-09-06T10:20:30.615Z,69.46
2017-09-06T10:25:32.671Z,69.54
2017-09-06T10:30:34.684Z,69.71
2017-09-06T10:35:36.655Z,68.47
2017-09-06T10:40:38.698Z,68.27
2017-09-06T10:45:40.652Z,67.02
2017-09-06T10:50:42.704Z,65.17
2017-09-06T10:55:46.416Z,65.39
2017-09-06T11:00:48.357Z,65.65
2017-09-06T11:05:50.375Z,65.53
2017-09-06T11:10:52.328Z,65.56
2017-09-06T11:15:54.377Z,64.54
2017-09-06T11:20:56.325Z,63.15
2017-09-06T11:25:58.273Z,62.34
2017-09-06T11:31:00.310Z,61.73
2017-09-06T11:36:02.421Z,62.11
2017-09-06T11:41:04.410Z,61.51
2017-09-06T11:46:06.382Z,62.84
2017-09-06T11:51:08.383Z,60.47
2017-09-06T11:56:10.331Z,60.70
2017-09-06T12:01:12.279Z,60.43
2017-09-06T12:06:14.398Z,59.04
2017-09-06T12:11:17.987Z,58.81
2017-09-06T12:16:25.475Z,57.51
2017-09-06T12:21:28.744Z,56.59
2017-09-06T12:26:35.284Z,56.38
2017-09-06T12:31:40.543Z,55.99
2017-09-06T12:36:42.890Z,55.77
2017-09-06T12:41:44.901Z,56.42
2017-09-06T12:46:46.939Z,54.85
2017-09-06T12:51:48.905Z,56.56
2017-09-06T12:56:50.853Z,54.22
2017-09-06T13:01:52.832Z,54.47
2017-09-06T13:06:54.772Z,54.35
2017-09-06T13:11:56.721Z,53.60
2017-09-06T13:16:58.662Z,53.08
2017-09-06T13:22:00.611Z,53.09
2017-09-06T13:27:02.576Z,52.05
2017-09-06T13:32:05.234Z,52.34
2017-09-06T13:37:07.695Z,53.10
2017-09-06T13:42:10.458Z,53.60
2017-09-06T13:47:12.468Z,53.46
2017-09-06T13:52:14.436Z,53.88
2017-09-06T13:57:16.852Z,56.41
2017-09-06T14:02:18.801Z,56.64
2017-09-06T14:07:20.844Z,55.64
2017-09-06T14:12:22.788Z,55.36
2017-09-06T14:17:25.674Z,54.10
2017-09-06T14:22:27.603Z,54.11
2017-09-06T14:27:29.544Z,55.25
2017-09-06T14:32:31.532Z,53.70
2017-09-06T14:37:33.470Z,52.32
2017-09-06T14:42:35.516Z,51.19
2017-09-06T14:47:37.557Z,50.43
2017-09-06T14:52:39.508Z,51.97
2017-09-06T14:57:41.469Z,53.01
2017-09-06T15:02:45.790Z,53.63
2017-09-06T15:07:47.758Z,55.72
2017-09-06T15:12:49.712Z,61.47
2017-09-06T15:17:51.680Z,67.75
2017-09-06T15:22:53.641Z,68.09
2017-09-06T15:27:55.631Z,68.25
2017-09-06T15:33:04.662Z,67.98
2017-09-06T15:38:06.604Z,67.81
2017-09-06T15:43:08.529Z,67.63
2017-09-06T15:48:10.460Z,67.06
2017-09-06T15:53:12.392Z,66.16
2017-09-06T15:58:14.359Z,63.93
2017-09-06T16:03:16.475Z,64.00
2017-09-06T16:08:18.471Z,63.13
2017-09-06T16:13:20.408Z,61.97
2017-09-06T16:18:22.361Z,61.81
2017-09-06T16:23:25.434Z,60.09
2017-09-06T16:28:27.497Z,58.65
2017-09-06T16:33:30.452Z,58.82
2017-09-06T16:38:33.215Z,58.20
2017-09-06T16:43:35.715Z,59.09
2017-09-06T16:48:38.444Z,59.20
2017-09-06T16:53:41.662Z,59.64
2017-09-06T16:58:54.823Z,59.03
2017-09-06T17:03:57.542Z,60.16
2017-09-06T17:09:00.186Z,59.71
2017-09-06T17:14:02.266Z,60.23
2017-09-06T17:19:04.203Z,60.49
2017-09-06T17:24:06.271Z,60.85
2017-09-06T17:29:09.069Z,59.83
2017-09-06T17:34:11.151Z,60.12
2017-09-06T17:39:13.095Z,60.40
2017-09-06T17:44:15.307Z,61.24
2017-09-06T17:49:17.601Z,61.40
2017-09-06T17:54:22.645Z,62.13
2017-09-06T17:59:25.181Z,62.65
2017-09-06T18:04:27.587Z,63.05
2017-09-06T18:09:29.906Z,63.15
2017-09-06T18:14:32.273Z,63.65
2017-09-06T18:19:36.471Z,63.76
2017-09-06T18:24:39.442Z,63.81
2017-09-06T18:29:41.866Z,64.15
2017-09-06T18:34:44.279Z,63.66
2017-09-06T18:39:46.360Z,64.21
2017-09-06T18:44:48.594Z,64.21
2017-09-06T18:49:50.947Z,64.20
2017-09-06T18:54:53.376Z,64.62
2017-09-06T18:59:55.846Z,64.88
2017-09-06T19:04:58.033Z,65.33
2017-09-06T19:10:00.296Z,65.42
2017-09-06T19:15:02.562Z,65.30
2017-09-06T19:20:04.638Z,65.48
2017-09-06T19:25:06.684Z,65.22
2017-09-06T19:30:09.052Z,65.30
2017-09-06T19:35:11.324Z,65.02
2017-09-06T19:40:13.693Z,65.27
2017-09-06T19:45:16.140Z,65.67
2017-09-06T19:50:18.460Z,65.67
2017-09-06T19:55:20.935Z,65.92
2017-09-06T20:00:23.100Z,65.83
2017-09-06T20:05:25.490Z,65.91
2017-09-06T20:10:30.154Z,65.42
2017-09-06T20:15:33.967Z,65.48
2017-09-06T20:20:37.064Z,65.51
2017-09-06T20:25:40.099Z,65.81
2017-09-06T20:30:44.615Z,66.07
2017-09-06T20:35:48.029Z,66.01
2017-09-06T20:40:50.220Z,65.96
2017-09-06T20:45:52.199Z,66.25
2017-09-06T20:50:54.265Z,66.73
2017-09-06T20:55:56.893Z,67.16
2017-09-06T21:00:58.966Z,67.33
2017-09-06T21:06:00.960Z,67.45
2017-09-06T21:11:03.212Z,66.72
2017-09-06T21:16:05.189Z,66.38
2017-09-06T21:21:07.205Z,66.32
2017-09-06T21:26:09.192Z,66.63
2017-09-06T21:31:11.196Z,66.85
2017-09-06T21:36:13.278Z,67.11
2017-09-06T21:41:15.314Z,66.81
2017-09-06T21:46:17.266Z,67.01
2017-09-06T21:51:19.265Z,66.96
2017-09-06T21:56:21.348Z,66.88
2017-09-06T22:01:23.328Z,66.64
2017-09-06T22:06:25.300Z,66.60
2017-09-06T22:11:27.256Z,66.44
2017-09-06T22:16:29.211Z,66.55
2017-09-06T22:21:31.206Z,67.32
2017-09-06T22:26:33.198Z,67.64
2017-09-06T22:31:35.193Z,67.95
2017-09-06T22:36:37.275Z,67.94
2017-09-06T22:41:39.259Z,67.76
2017-09-06T22:46:41.249Z,67.83
2017-09-06T22:51:43.688Z,68.22
2017-09-06T22:56:47.564Z,68.38
2017-09-06T23:01:49.532Z,68.10
2017-09-06T23:06:51.455Z,67.93
2017-09-06T23:11:53.430Z,67.70
2017-09-06T23:16:55.382Z,67.76
2017-09-06T23:21:57.315Z,67.57
2017-09-06T23:26:59.290Z,67.55
2017-09-06T23:32:01.296Z,67.51
2017-09-06T23:37:03.240Z,67.61
2017-09-06T23:42:05.287Z,67.60
2017-09-06T23:47:07.342Z,67.89
2017-09-06T23:52:09.332Z,68.30
2017-09-06T23:57:11.600Z,68.55
